Time;durP1;ratioP1;P1;durP2;ratioP2;P2;SDS_P1;SDS_P2;PMS_P1;PMS_P2;Temp;Humidity;BMP_temperature;BMP_pressure;BME280_temperature;BME280_humidity;BME280_pressure;Samples;Min_cycle;Max_cycle;Signal;HPM_P1;HPM_P2
2022/03/21 00:01:55;;;;;;;14.37;12.30;;;10.20;79.00;;;;;;5100034;28;20181;-44
2022/03/21 00:04:22;;;;;;;15.03;13.43;;;10.30;58.60;;;;;;5100549;28;20173;-44
2022/03/21 00:06:48;;;;;;;16.07;14.37;;;10.30;54.30;;;;;;5100098;28;20523;-44
2022/03/21 00:09:13;;;;;;;16.23;14.53;;;10.20;51.40;;;;;;5100930;28;20490;-44
2022/03/21 00:11:39;;;;;;;15.67;13.97;;;10.00;49.10;;;;;;5099640;28;20165;-43
2022/03/21 00:14:05;;;;;;;17.40;15.50;;;9.80;48.50;;;;;;5099602;28;20169;-44
2022/03/21 00:16:31;;;;;;;16.33;14.53;;;9.50;47.20;;;;;;5099953;28;20414;-44
2022/03/21 00:18:56;;;;;;;17.07;15.37;;;9.30;46.30;;;;;;5100571;28;20177;-44
2022/03/21 00:21:22;;;;;;;17.40;15.50;;;9.20;45.40;;;;;;5099310;28;20483;-42
2022/03/21 00:23:48;;;;;;;16.30;14.63;;;9.10;44.90;;;;;;5097163;28;20530;-43
2022/03/21 00:26:15;;;;;;;16.43;14.73;;;8.90;44.40;;;;;;5098763;28;20172;-44
2022/03/21 00:28:41;;;;;;;20.10;16.47;;;8.80;44.20;;;;;;5097610;28;20474;-43
2022/03/21 00:31:07;;;;;;;17.80;15.70;;;8.70;44.00;;;;;;5098816;28;20766;-43
2022/03/21 00:33:32;;;;;;;17.00;14.90;;;8.60;43.90;;;;;;5097512;28;20435;-44
2022/03/21 00:35:58;;;;;;;18.33;15.03;;;8.60;43.90;;;;;;5099301;28;20816;-44
2022/03/21 00:38:24;;;;;;;17.50;14.87;;;8.50;43.90;;;;;;5081414;28;20193;-44
2022/03/21 00:40:50;;;;;;;16.77;14.57;;;8.40;43.80;;;;;;5099515;28;20375;-44
2022/03/21 00:43:21;;;;;;;16.47;14.70;;;8.30;43.80;;;;;;5098692;28;20914;-43
2022/03/21 00:45:47;;;;;;;17.50;14.77;;;8.20;43.70;;;;;;5100054;28;20420;-44
2022/03/21 00:48:13;;;;;;;16.87;15.03;;;8.20;43.70;;;;;;5098370;28;20466;-43
2022/03/21 00:50:39;;;;;;;17.27;15.40;;;8.20;43.70;;;;;;5098585;28;20420;-43
2022/03/21 00:53:05;;;;;;;17.63;15.10;;;8.10;43.70;;;;;;5097269;28;20245;-43
2022/03/21 00:55:30;;;;;;;15.27;13.67;;;8.00;43.50;;;;;;5099825;28;20461;-43
2022/03/21 00:57:57;;;;;;;20.10;14.80;;;8.00;43.50;;;;;;5098375;28;20177;-43
2022/03/21 01:00:27;;;;;;;17.07;15.10;;;8.00;43.50;;;;;;5100074;28;20168;-44
2022/03/21 01:02:54;;;;;;;19.67;15.63;;;7.90;43.40;;;;;;5098297;28;20430;-44
2022/03/21 01:05:20;;;;;;;19.20;15.93;;;7.90;43.30;;;;;;5099688;28;20404;-43
2022/03/21 01:07:46;;;;;;;17.53;14.47;;;7.80;43.10;;;;;;5098814;28;20440;-43
2022/03/21 01:10:17;;;;;;;17.57;15.40;;;7.80;43.00;;;;;;5099775;28;20215;-44
2022/03/21 01:12:43;;;;;;;16.83;15.03;;;7.80;43.50;;;;;;5098948;28;20435;-43
2022/03/21 01:15:13;;;;;;;17.30;15.50;;;7.80;43.00;;;;;;5099554;28;20415;-43
2022/03/21 01:17:39;;;;;;;18.37;15.80;;;7.70;42.80;;;;;;5097936;28;20567;-44
2022/03/21 01:20:05;;;;;;;16.33;14.47;;;7.70;42.80;;;;;;5099719;28;20411;-44
2022/03/21 01:22:30;;;;;;;22.03;17.43;;;7.70;42.70;;;;;;5098079;28;20193;-44
2022/03/21 01:24:57;;;;;;;16.37;14.67;;;7.70;42.70;;;;;;5099551;28;20505;-44
2022/03/21 01:27:22;;;;;;;15.70;14.10;;;7.70;42.70;;;;;;5098016;28;20184;-44
2022/03/21 01:29:49;;;;;;;16.30;13.73;;;7.70;42.70;;;;;;5098719;28;20458;-44
2022/03/21 01:32:14;;;;;;;17.03;15.00;;;7.60;42.70;;;;;;5098520;28;20177;-43
2022/03/21 01:34:40;;;;;;;16.23;14.53;;;7.60;42.90;;;;;;5098733;28;20418;-44
2022/03/21 01:37:06;;;;;;;19.23;14.97;;;7.60;42.90;;;;;;5099082;28;20184;-44
2022/03/21 01:39:32;;;;;;;18.83;14.97;;;7.50;43.00;;;;;;5098242;28;20181;-44
2022/03/21 01:41:57;;;;;;;15.20;13.70;;;7.50;43.20;;;;;;5099173;28;20414;-44
2022/03/21 01:44:23;;;;;;;16.20;14.37;;;7.50;43.30;;;;;;5096856;28;20185;-43
2022/03/21 01:46:48;;;;;;;21.33;15.33;;;7.50;43.50;;;;;;5099178;28;20180;-44
2022/03/21 01:49:14;;;;;;;18.30;16.40;;;7.40;43.70;;;;;;5097364;28;20213;-44
2022/03/21 01:51:41;;;;;;;17.93;14.57;;;7.40;43.90;;;;;;5098709;28;20281;-44
2022/03/21 01:56:52;;;;;;;17.80;16.00;;;7.30;44.70;;;;;;5098368;28;20402;-43
2022/03/21 01:59:19;;;;;;;18.23;16.33;;;7.20;44.40;;;;;;5097359;28;20491;-44
2022/03/21 02:01:45;;;;;;;16.40;14.20;;;7.20;45.00;;;;;;5098630;28;20425;-43
2022/03/21 02:04:11;;;;;;;18.27;15.83;;;7.10;44.60;;;;;;5096675;28;20435;-43
2022/03/21 02:06:37;;;;;;;15.80;14.20;;;7.10;44.60;;;;;;5098560;28;20414;-43
2022/03/21 02:09:05;;;;;;;17.50;15.60;;;7.10;44.70;;;;;;5097657;28;20208;-43
2022/03/21 02:14:52;;;;;;;19.43;15.93;;;7.00;44.60;;;;;;5097343;28;20402;-44
2022/03/21 02:17:23;;;;;;;16.27;14.67;;;7.00;44.60;;;;;;5097255;28;20700;-43
2022/03/21 02:19:49;;;;;;;16.20;14.50;;;7.00;44.70;;;;;;5097030;28;20200;-43
2022/03/21 02:22:33;;;;;;;16.10;14.30;;;7.00;44.80;;;;;;5098456;28;20824;-43
2022/03/21 02:25:17;;;;;;;16.50;14.63;;;6.90;44.80;;;;;;5097282;28;20435;-42
2022/03/21 02:27:45;;;;;;;18.93;15.30;;;6.90;44.90;;;;;;5098248;28;20407;-43
2022/03/21 02:30:12;;;;;;;17.77;14.73;;;6.80;44.90;;;;;;5095546;28;20467;-43
2022/03/21 02:32:37;;;;;;;17.80;13.53;;;6.80;45.00;;;;;;5098334;28;20413;-43
2022/03/21 02:35:04;;;;;;;18.00;14.60;;;6.80;45.10;;;;;;5096803;28;20892;-43
2022/03/21 02:37:30;;;;;;;16.27;14.20;;;6.80;45.20;;;;;;5098186;28;20419;-44
2022/03/21 02:39:57;;;;;;;18.90;15.57;;;6.70;45.40;;;;;;5097101;28;20461;-42
2022/03/21 02:42:22;;;;;;;16.90;15.10;;;6.70;45.70;;;;;;5096706;28;20533;-43
2022/03/21 02:44:49;;;;;;;20.00;16.70;;;6.70;45.90;;;;;;5097843;28;20518;-43
2022/03/21 02:47:14;;;;;;;17.10;15.30;;;6.70;46.10;;;;;;5096318;28;20204;-44
2022/03/21 02:49:40;;;;;;;18.10;15.20;;;6.70;46.30;;;;;;5098281;28;20567;-44
2022/03/21 02:52:06;;;;;;;18.10;15.73;;;6.60;46.40;;;;;;5096979;28;20181;-43
2022/03/21 02:54:33;;;;;;;19.83;15.17;;;6.60;46.50;;;;;;5098121;28;20174;-43
2022/03/21 02:56:59;;;;;;;16.73;14.20;;;6.60;46.60;;;;;;5096058;28;20584;-43
2022/03/21 02:59:25;;;;;;;18.90;16.00;;;6.60;46.60;;;;;;5097894;28;20407;-41
2022/03/21 03:01:54;;;;;;;16.50;14.37;;;6.70;46.60;;;;;;5095787;28;20447;-43
2022/03/21 03:04:24;;;;;;;17.33;14.87;;;6.70;46.60;;;;;;5097478;28;20403;-44
2022/03/21 03:06:50;;;;;;;17.03;14.90;;;6.70;46.70;;;;;;5098027;28;20440;-44
2022/03/21 03:09:16;;;;;;;19.07;15.27;;;6.70;46.80;;;;;;5097342;28;20458;-43
2022/03/21 03:11:41;;;;;;;21.07;17.83;;;6.70;46.90;;;;;;5096523;28;20418;-43
2022/03/21 03:14:08;;;;;;;23.10;19.10;;;6.70;46.90;;;;;;5096313;28;20531;-43
2022/03/21 03:16:34;;;;;;;21.83;18.97;;;6.70;46.90;;;;;;5100752;28;20180;-44
2022/03/21 03:19:00;;;;;;;18.57;15.73;;;6.70;46.90;;;;;;5102286;28;20479;-43
2022/03/21 03:21:28;;;;;;;20.20;16.73;;;6.70;46.90;;;;;;5100096;28;20423;-44
2022/03/21 03:23:55;;;;;;;18.83;15.30;;;6.70;47.00;;;;;;5101514;28;20429;-43
2022/03/21 03:26:20;;;;;;;21.10;16.77;;;6.70;47.00;;;;;;5099742;28;20530;-44
2022/03/21 03:28:46;;;;;;;18.63;16.17;;;6.70;47.20;;;;;;5101461;28;20559;-44
2022/03/21 03:31:16;;;;;;;20.07;16.30;;;6.70;47.40;;;;;;5100542;28;20638;-42
2022/03/21 03:33:45;;;;;;;18.40;14.97;;;6.80;47.70;;;;;;5101669;28;20509;-44
2022/03/21 03:36:15;;;;;;;18.00;14.97;;;6.70;47.70;;;;;;5100072;28;20579;-43
2022/03/21 03:38:42;;;;;;;17.10;14.93;;;6.70;47.90;;;;;;5101254;28;20750;-42
2022/03/21 03:41:10;;;;;;;17.03;15.23;;;6.70;48.00;;;;;;5099490;28;20419;-43
2022/03/21 03:43:36;;;;;;;17.47;14.83;;;6.70;48.00;;;;;;5101356;28;20411;-43
2022/03/21 03:46:02;;;;;;;16.47;14.77;;;6.70;48.50;;;;;;5100525;28;20431;-43
2022/03/21 03:48:28;;;;;;;21.73;16.40;;;6.70;48.20;;;;;;5101093;28;20813;-43
2022/03/21 03:50:54;;;;;;;18.60;16.07;;;6.70;48.30;;;;;;5100105;28;20184;-43
2022/03/21 03:53:20;;;;;;;18.77;16.50;;;6.70;48.50;;;;;;5101162;28;20403;-43
2022/03/21 03:55:47;;;;;;;18.17;15.60;;;6.60;48.40;;;;;;5099752;28;20460;-43
2022/03/21 03:58:13;;;;;;;17.63;15.77;;;6.60;48.50;;;;;;5099887;28;20483;-44
2022/03/21 04:00:39;;;;;;;17.70;15.80;;;6.60;48.70;;;;;;5100315;28;20402;-44
2022/03/21 04:05:49;;;;;;;17.60;14.90;;;6.50;48.90;;;;;;5099024;28;20203;-43
2022/03/21 04:08:15;;;;;;;17.10;15.30;;;6.50;49.10;;;;;;5100436;28;20419;-43
2022/03/21 04:10:41;;;;;;;18.47;15.97;;;6.50;49.30;;;;;;5099949;28;20180;-43
2022/03/21 04:13:07;;;;;;;18.73;16.70;;;6.40;49.50;;;;;;5100529;28;20415;-43
2022/03/21 04:15:33;;;;;;;17.53;15.57;;;6.30;49.60;;;;;;5100183;28;20180;-43
2022/03/21 04:18:02;;;;;;;20.27;16.10;;;6.30;49.80;;;;;;5100437;28;20192;-43
2022/03/21 04:20:31;;;;;;;18.10;16.10;;;6.30;50.00;;;;;;5099047;28;20570;-44
2022/03/21 04:22:57;;;;;;;18.63;15.57;;;6.20;50.00;;;;;;5100082;28;20423;-43
2022/03/21 04:25:23;;;;;;;18.30;16.20;;;6.20;50.10;;;;;;5100458;28;20402;-43
2022/03/21 04:27:49;;;;;;;16.90;14.73;;;6.20;50.20;;;;;;5096432;28;20695;-43
2022/03/21 04:30:15;;;;;;;20.17;15.70;;;6.20;50.30;;;;;;5100512;28;20462;-43
2022/03/21 04:32:41;;;;;;;17.23;15.17;;;6.10;50.40;;;;;;5099038;28;20208;-45
2022/03/21 04:35:07;;;;;;;18.57;16.03;;;6.10;50.50;;;;;;5100576;28;20485;-43
2022/03/21 04:37:32;;;;;;;17.13;15.30;;;6.10;50.50;;;;;;5099378;28;20434;-43
2022/03/21 04:39:58;;;;;;;17.90;15.30;;;6.10;50.40;;;;;;5100086;28;20438;-43
2022/03/21 04:42:24;;;;;;;18.43;15.40;;;6.00;50.10;;;;;;5098196;28;20185;-43
2022/03/21 04:44:50;;;;;;;18.60;15.70;;;6.00;49.90;;;;;;5064055;28;20636;-43
2022/03/21 04:47:17;;;;;;;18.00;16.20;;;6.00;49.80;;;;;;5097685;28;20427;-43
2022/03/21 04:49:44;;;;;;;16.40;13.90;;;6.00;49.80;;;;;;5099031;28;20481;-43
2022/03/21 04:52:09;;;;;;;21.20;16.60;;;6.00;49.80;;;;;;5098365;28;20872;-43
2022/03/21 04:54:35;;;;;;;19.73;16.00;;;6.00;49.90;;;;;;5099513;28;20512;-43
2022/03/21 04:57:00;;;;;;;17.37;15.67;;;6.00;50.10;;;;;;5095982;28;20181;-44
2022/03/21 04:59:26;;;;;;;16.60;14.53;;;5.90;50.10;;;;;;5095530;28;20204;-43
2022/03/21 05:01:52;;;;;;;16.30;13.90;;;5.90;50.30;;;;;;5094482;28;20455;-44
2022/03/21 05:04:19;;;;;;;18.60;15.90;;;5.90;50.40;;;;;;5094181;28;20726;-47
2022/03/21 05:06:46;;;;;;;18.17;16.27;;;5.80;50.50;;;;;;5094235;28;20241;-47
2022/03/21 05:09:11;;;;;;;17.30;15.07;;;5.80;50.60;;;;;;5095653;28;20419;-47
2022/03/21 05:11:37;;;;;;;18.20;15.07;;;5.80;50.60;;;;;;5095667;28;20441;-47
2022/03/21 05:14:03;;;;;;;16.80;14.83;;;5.80;50.70;;;;;;5097304;28;20821;-47
2022/03/21 05:16:28;;;;;;;17.63;15.30;;;5.80;50.60;;;;;;5098037;28;20185;-47
2022/03/21 05:18:55;;;;;;;17.67;14.87;;;5.80;50.60;;;;;;5099291;28;20208;-47
2022/03/21 05:21:21;;;;;;;19.00;15.20;;;5.80;50.60;;;;;;5098279;28;20191;-47
2022/03/21 05:32:00;;;;;;;18.90;15.90;;;5.80;51.00;;;;;;5094719;28;20440;-47
2022/03/21 05:37:09;;;;;;;18.00;15.60;;;5.70;51.10;;;;;;5094471;28;20211;-47
2022/03/21 05:40:31;;;;;;;19.50;16.80;;;5.70;51.20;;;;;;5092890;28;20932;-47
2022/03/21 05:42:21;;;;;;;17.90;15.47;;;5.80;51.10;;;;;;5093438;28;20418;-47
2022/03/21 05:44:46;;;;;;;20.20;16.67;;;5.80;50.90;;;;;;5093909;28;20496;-47
2022/03/21 05:47:12;;;;;;;17.43;15.20;;;5.80;50.70;;;;;;5096332;28;20164;-47
2022/03/21 05:49:37;;;;;;;17.23;14.77;;;5.80;50.60;;;;;;5096136;28;20189;-47
2022/03/21 05:52:04;;;;;;;18.70;16.70;;;5.90;50.60;;;;;;5096349;28;20203;-47
2022/03/21 05:54:29;;;;;;;18.17;16.23;;;5.90;50.80;;;;;;5094892;28;20185;-47
2022/03/21 05:56:55;;;;;;;21.37;16.40;;;5.90;51.10;;;;;;5094729;28;20426;-47
2022/03/21 06:02:05;;;;;;;18.20;16.30;;;5.90;51.40;;;;;;5093415;28;20802;-47
2022/03/21 06:04:31;;;;;;;20.80;16.57;;;6.00;51.50;;;;;;5093962;28;20513;-47
2022/03/21 06:06:56;;;;;;;19.13;16.67;;;6.10;51.60;;;;;;5095894;28;20169;-47
2022/03/21 06:09:22;;;;;;;19.07;16.40;;;6.10;51.60;;;;;;5094266;28;20212;-47
2022/03/21 06:11:48;;;;;;;18.50;16.50;;;6.20;51.50;;;;;;5093324;28;20584;-47
2022/03/21 06:14:16;;;;;;;23.20;16.30;;;6.30;51.40;;;;;;5088929;28;20530;-47
2022/03/21 06:16:42;;;;;;;20.20;16.20;;;6.40;51.10;;;;;;5090573;28;20263;-47
2022/03/21 06:19:08;;;;;;;19.37;16.10;;;6.60;51.00;;;;;;5091326;28;20565;-47
2022/03/21 06:21:33;;;;;;;19.80;16.73;;;6.70;50.90;;;;;;5090998;28;20455;-47
2022/03/21 06:23:59;;;;;;;20.37;17.73;;;6.80;50.70;;;;;;5091939;28;20218;-47
2022/03/21 06:26:25;;;;;;;18.20;15.87;;;6.90;50.50;;;;;;5090347;28;20192;-47
2022/03/21 06:28:50;;;;;;;22.17;17.70;;;7.10;50.40;;;;;;5088968;28;20444;-47
2022/03/21 06:31:16;;;;;;;21.37;17.00;;;7.20;50.10;;;;;;5090922;28;20181;-47
2022/03/21 06:33:42;;;;;;;19.50;17.50;;;7.40;50.10;;;;;;5091045;28;20396;-47
2022/03/21 06:36:09;;;;;;;21.50;18.23;;;7.50;49.90;;;;;;5094088;28;20244;-49
2022/03/21 06:38:36;;;;;;;20.00;17.73;;;7.60;49.80;;;;;;5093193;28;20266;-48
2022/03/21 06:41:04;;;;;;;19.97;17.73;;;7.80;49.80;;;;;;5091999;28;20502;-48
2022/03/21 06:43:29;;;;;;;21.20;16.90;;;7.90;49.60;;;;;;5090586;28;20460;-48
2022/03/21 06:45:56;;;;;;;18.83;16.60;;;8.10;49.40;;;;;;5089660;28;20419;-48
2022/03/21 06:48:23;;;;;;;20.80;16.77;;;8.30;49.20;;;;;;5089710;28;20161;-48
2022/03/21 06:50:50;;;;;;;20.00;17.90;;;8.50;48.90;;;;;;5090709;28;20740;-49
2022/03/21 06:53:17;;;;;;;18.07;16.07;;;8.80;48.70;;;;;;5087673;28;20816;-48
2022/03/21 06:55:43;;;;;;;18.47;16.10;;;9.00;48.40;;;;;;5091180;28;20546;-48
2022/03/21 06:58:11;;;;;;;18.70;16.30;;;9.30;48.10;;;;;;5090524;28;20866;-48
2022/03/21 07:00:40;;;;;;;17.67;15.83;;;9.50;47.60;;;;;;5092696;28;20407;-48
2022/03/21 07:03:07;;;;;;;20.30;17.47;;;9.80;46.80;;;;;;5091354;28;20737;-48
2022/03/21 07:05:36;;;;;;;16.37;14.67;;;10.20;45.30;;;;;;5092244;28;20418;-48
2022/03/21 07:08:03;;;;;;;18.57;16.57;;;10.50;44.60;;;;;;5092621;28;20873;-48
2022/03/21 07:10:29;;;;;;;18.20;14.73;;;10.80;43.90;;;;;;5091485;28;20435;-48
2022/03/21 07:12:55;;;;;;;18.00;16.23;;;11.10;43.20;;;;;;5088184;28;20419;-48
2022/03/21 07:15:20;;;;;;;17.50;14.83;;;11.40;42.80;;;;;;5089856;28;20862;-48
2022/03/21 07:17:48;;;;;;;17.33;15.63;;;11.70;42.30;;;;;;5088462;28;20242;-48
2022/03/21 07:20:14;;;;;;;18.10;16.23;;;12.10;41.80;;;;;;5091791;28;20210;-48
2022/03/21 07:22:39;;;;;;;18.07;16.27;;;12.40;41.20;;;;;;5091273;28;20877;-48
2022/03/21 07:25:06;;;;;;;15.63;14.10;;;12.70;40.60;;;;;;5093577;28;20184;-42
2022/03/21 07:27:33;;;;;;;17.17;15.47;;;13.00;39.90;;;;;;5090180;28;20224;-40
2022/03/21 07:29:58;;;;;;;17.87;15.40;;;13.40;39.40;;;;;;5094162;28;20472;-42
2022/03/21 07:32:24;;;;;;;18.40;16.60;;;13.90;38.90;;;;;;5095032;28;20422;-41
2022/03/21 07:34:50;;;;;;;19.20;17.00;;;14.40;38.40;;;;;;5093060;28;20268;-41
2022/03/21 07:37:15;;;;;;;18.67;16.77;;;14.90;37.80;;;;;;5092825;28;20330;-40
2022/03/21 07:39:44;;;;;;;18.10;16.20;;;15.50;37.20;;;;;;5093144;28;20284;-43
2022/03/21 07:42:14;;;;;;;20.20;16.00;;;16.10;36.50;;;;;;5092816;28;20181;-40
2022/03/21 07:47:24;;;;;;;18.87;17.07;;;17.00;35.10;;;;;;5092340;28;20479;-41
2022/03/21 07:49:55;;;;;;;19.83;17.80;;;17.40;34.40;;;;;;5095189;28;20734;-41
2022/03/21 07:52:21;;;;;;;18.10;16.23;;;17.90;34.00;;;;;;5093871;28;20230;-41
2022/03/21 07:54:51;;;;;;;23.50;18.60;;;18.30;33.50;;;;;;5094313;28;20449;-41
2022/03/21 07:57:17;;;;;;;22.70;17.70;;;18.80;33.00;;;;;;5092730;28;20439;-44
2022/03/21 07:59:43;;;;;;;18.73;16.60;;;19.20;32.40;;;;;;5093141;28;20471;-43
2022/03/21 08:02:09;;;;;;;21.10;18.90;;;19.70;32.00;;;;;;5097538;28;20198;-42
2022/03/21 08:04:35;;;;;;;19.90;16.90;;;20.20;31.40;;;;;;5098143;28;20165;-42
2022/03/21 08:07:00;;;;;;;27.17;18.40;;;20.80;30.90;;;;;;5097153;28;20183;-42
2022/03/21 08:09:29;;;;;;;20.90;18.20;;;21.40;30.30;;;;;;5094987;28;20625;-43
2022/03/21 08:11:57;;;;;;;21.30;18.83;;;21.80;29.80;;;;;;5096162;28;20192;-40
2022/03/21 08:14:23;;;;;;;21.30;17.83;;;22.30;29.60;;;;;;5097792;28;20567;-43
2022/03/21 08:16:48;;;;;;;19.87;17.93;;;22.90;29.40;;;;;;5104776;28;20452;-40
2022/03/21 08:19:16;;;;;;;19.33;17.33;;;23.50;29.00;;;;;;5118995;28;20456;-42
2022/03/21 08:21:41;;;;;;;20.60;17.90;;;24.00;28.70;;;;;;5118436;28;20173;-42
2022/03/21 08:24:07;;;;;;;19.90;18.00;;;24.60;28.40;;;;;;5118916;28;20402;-39
2022/03/21 08:26:35;;;;;;;19.30;17.60;;;25.10;28.00;;;;;;5117426;28;20205;-40
2022/03/21 08:29:01;;;;;;;12.10;11.10;;;25.60;27.60;;;;;;5116736;28;20449;-40
2022/03/21 08:31:27;;;;;;;12.50;11.30;;;26.20;30.30;;;;;;5115942;27;20503;-41
2022/03/21 08:33:52;;;;;;;13.50;12.30;;;26.60;31.10;;;;;;5098974;28;20526;-40
2022/03/21 08:36:18;;;;;;;13.40;12.20;;;27.00;31.40;;;;;;5116955;28;20234;-38
2022/03/21 08:38:43;;;;;;;12.50;11.37;;;27.60;30.70;;;;;;5116332;28;20256;-40
2022/03/21 08:41:09;;;;;;;14.83;13.63;;;28.20;30.40;;;;;;5116095;28;20265;-40
2022/03/21 08:43:35;;;;;;;13.47;12.37;;;28.50;29.30;;;;;;5116814;28;20180;-40
2022/03/21 08:46:01;;;;;;;13.70;12.60;;;29.00;29.50;;;;;;5117744;28;20165;-38
2022/03/21 08:51:11;;;;;;;14.60;13.40;;;30.20;28.10;;;;;;5115070;28;20203;-41
2022/03/21 08:53:37;;;;;;;15.07;13.80;;;30.80;27.20;;;;;;5114610;28;20458;-38
2022/03/21 08:56:03;;;;;;;17.60;16.10;;;31.20;26.90;;;;;;5113581;28;20554;-41
2022/03/21 08:58:28;;;;;;;16.73;15.50;;;31.70;26.00;;;;;;5115653;28;20191;-39
2022/03/21 09:00:54;;;;;;;18.40;16.90;;;31.90;25.30;;;;;;5114583;28;20492;-40
2022/03/21 09:03:20;;;;;;;18.43;16.90;;;32.40;25.00;;;;;;5114333;28;20176;-39
2022/03/21 09:05:46;;;;;;;17.87;16.40;;;32.90;24.50;;;;;;5115322;28;20173;-40
2022/03/21 09:08:12;;;;;;;17.90;16.50;;;33.20;24.30;;;;;;5116623;28;20736;-39
2022/03/21 09:10:38;;;;;;;18.60;16.80;;;33.50;24.10;;;;;;5101994;28;20468;-40
2022/03/21 09:13:05;;;;;;;17.80;16.30;;;33.80;23.90;;;;;;5093771;28;20458;-41
2022/03/21 09:15:31;;;;;;;18.03;16.63;;;33.90;23.70;;;;;;5094834;28;20544;-42
2022/03/21 09:17:56;;;;;;;13.63;12.53;;;34.10;23.90;;;;;;5095664;28;20905;-41
2022/03/21 09:20:22;;;;;;;12.97;11.87;;;34.30;25.50;;;;;;5095849;28;20460;-41
2022/03/21 09:22:48;;;;;;;12.20;11.30;;;34.40;26.00;;;;;;5094929;28;20191;-42
2022/03/21 09:25:13;;;;;;;12.90;11.90;;;34.40;26.00;;;;;;5093589;28;20233;-39
2022/03/21 09:27:42;;;;;;;11.17;10.30;;;34.60;25.80;;;;;;5094860;28;20194;-41
2022/03/21 09:30:09;;;;;;;12.90;10.73;;;34.60;26.10;;;;;;5096999;28;20228;-38
2022/03/21 09:32:35;;;;;;;12.60;11.60;;;34.50;26.30;;;;;;5096547;28;20876;-38
2022/03/21 09:35:00;;;;;;;12.70;11.60;;;34.40;26.20;;;;;;5094801;28;20434;-41
2022/03/21 09:37:26;;;;;;;13.83;12.67;;;34.00;26.10;;;;;;5096308;28;20256;-41
2022/03/21 09:39:52;;;;;;;12.60;11.50;;;33.90;26.10;;;;;;5098428;28;20196;-40
2022/03/21 09:42:19;;;;;;;12.57;11.57;;;33.60;26.10;;;;;;5097040;28;20215;-39
2022/03/21 09:44:53;;;;;;;13.87;12.77;;;33.30;26.20;;;;;;5097931;28;20438;-42
2022/03/21 09:50:09;;;;;;;14.53;13.43;;;32.60;27.00;;;;;;5096517;28;20433;-42
2022/03/21 09:52:35;;;;;;;14.40;13.27;;;32.60;26.50;;;;;;5095890;28;20408;-39
2022/03/21 09:55:02;;;;;;;14.93;13.70;;;32.60;26.50;;;;;;5096918;28;20479;-43
2022/03/21 09:57:28;;;;;;;13.30;12.13;;;33.00;26.40;;;;;;5094291;28;20179;-39
2022/03/21 09:59:57;;;;;;;13.93;12.83;;;33.50;26.10;;;;;;5096466;28;20402;-40
2022/03/21 10:02:24;;;;;;;13.60;12.50;;;34.10;26.00;;;;;;5096663;28;20213;-39
2022/03/21 10:04:50;;;;;;;13.87;12.67;;;34.50;25.90;;;;;;5097447;28;20392;-40
2022/03/21 10:07:23;;;;;;;14.30;13.10;;;35.20;25.70;;;;;;5096097;28;20717;-42
2022/03/21 10:10:08;;;;;;;14.17;13.13;;;35.40;25.30;;;;;;5096098;28;20469;-43
2022/03/21 10:12:35;;;;;;;14.27;13.17;;;35.90;24.90;;;;;;5094617;28;20431;-41
2022/03/21 10:15:04;;;;;;;15.17;13.90;;;36.60;24.80;;;;;;5096546;28;20407;-41
2022/03/21 10:17:30;;;;;;;14.53;13.43;;;37.10;24.60;;;;;;5094567;28;20714;-42
2022/03/21 10:19:56;;;;;;;15.77;14.40;;;37.20;24.20;;;;;;5093223;28;20531;-43
2022/03/21 10:22:22;;;;;;;14.80;13.50;;;37.60;23.80;;;;;;5093797;28;20188;-42
2022/03/21 10:24:52;;;;;;;15.17;14.07;;;37.80;24.00;;;;;;5092122;28;20180;-40
2022/03/21 10:27:31;;;;;;;14.43;13.43;;;37.60;23.90;;;;;;5092912;28;20424;-44
2022/03/21 10:30:31;;;;;;;16.90;15.60;;;37.10;24.00;;;;;;5093730;28;20455;-45
2022/03/21 10:33:00;;;;;;;14.40;13.20;;;36.50;24.00;;;;;;5080769;28;20582;-42
2022/03/21 10:35:30;;;;;;;15.63;14.50;;;35.80;24.20;;;;;;5093223;28;20964;-40
2022/03/21 10:38:03;;;;;;;14.27;13.27;;;35.30;24.30;;;;;;5091665;28;20836;-41
2022/03/21 10:40:43;;;;;;;15.37;14.07;;;35.00;24.60;;;;;;5093991;28;20680;-42
2022/03/21 10:43:12;;;;;;;15.30;14.10;;;34.70;25.50;;;;;;5094901;28;20431;-41
2022/03/21 10:45:46;;;;;;;15.30;14.10;;;35.00;26.00;;;;;;5094151;28;20410;-46
2022/03/21 10:48:14;;;;;;;16.87;14.97;;;36.30;25.10;;;;;;5093623;28;20542;-44
2022/03/21 10:50:52;;;;;;;15.13;13.93;;;37.40;24.30;;;;;;5095422;28;20424;-42
2022/03/21 10:53:23;;;;;;;16.00;14.80;;;37.70;24.30;;;;;;5092990;28;20426;-41
2022/03/21 10:56:01;;;;;;;16.13;14.70;;;37.90;23.90;;;;;;5095038;28;20993;-37
2022/03/21 10:58:39;;;;;;;13.60;12.43;;;38.20;23.90;;;;;;5094455;28;20416;-42
2022/03/21 11:01:17;;;;;;;14.47;13.47;;;38.70;24.10;;;;;;5092748;28;20427;-39
2022/03/21 11:03:51;;;;;;;15.77;14.63;;;38.80;23.90;;;;;;5092642;28;20769;-40
2022/03/21 11:06:17;;;;;;;15.20;14.10;;;39.30;23.10;;;;;;5095028;28;20747;-40
2022/03/21 11:08:52;;;;;;;15.57;14.43;;;39.50;23.20;;;;;;5091475;28;20969;-39
2022/03/21 11:11:18;;;;;;;12.93;11.93;;;40.00;23.20;;;;;;5091723;28;20468;-38
2022/03/21 11:13:45;;;;;;;14.67;13.60;;;40.30;23.00;;;;;;5091336;28;20709;-36
2022/03/21 11:16:13;;;;;;;13.40;12.40;;;40.60;22.70;;;;;;5092552;28;20381;-38
2022/03/21 11:18:40;;;;;;;13.13;11.97;;;40.80;23.20;;;;;;5091920;28;20428;-37
2022/03/21 11:21:11;;;;;;;14.73;13.57;;;40.60;23.30;;;;;;5093348;28;20703;-39
2022/03/21 11:23:38;;;;;;;14.80;13.57;;;40.50;22.90;;;;;;5096218;28;20443;-38
2022/03/21 11:26:38;;;;;;;16.30;15.00;;;40.40;22.60;;;;;;5115600;28;20453;-39
2022/03/21 11:29:07;;;;;;;13.43;12.40;;;40.00;22.50;;;;;;5114143;28;20474;-39
2022/03/21 11:32:08;;;;;;;15.63;14.53;;;39.60;23.10;;;;;;5114842;28;20434;-39
2022/03/21 11:34:45;;;;;;;14.80;13.60;;;39.20;22.90;;;;;;5109315;28;20517;-40
2022/03/21 11:37:26;;;;;;;14.80;13.40;;;38.30;23.70;;;;;;5115355;28;20411;-41
2022/03/21 11:40:29;;;;;;;14.67;13.20;;;37.10;24.00;;;;;;5114775;28;20418;-39
2022/03/21 11:43:16;;;;;;;14.43;13.23;;;36.20;24.40;;;;;;5118073;28;20416;-40
2022/03/21 11:45:41;;;;;;;14.70;13.37;;;35.90;24.50;;;;;;5116987;28;20781;-41
2022/03/21 11:48:22;;;;;;;13.83;12.73;;;35.70;24.40;;;;;;5118122;28;20516;-41
2022/03/21 11:50:57;;;;;;;15.03;13.57;;;35.60;24.70;;;;;;5117874;28;20176;-41
2022/03/21 11:53:31;;;;;;;14.40;13.20;;;35.80;24.50;;;;;;5117645;28;20408;-41
2022/03/21 11:55:58;;;;;;;15.57;14.30;;;36.00;24.50;;;;;;5117927;28;20813;-40
2022/03/21 11:58:43;;;;;;;14.47;13.27;;;36.60;24.20;;;;;;5119153;28;20405;-42
2022/03/21 12:01:09;;;;;;;13.70;12.57;;;36.80;24.20;;;;;;5117812;28;20657;-41
2022/03/21 12:03:36;;;;;;;14.00;12.70;;;37.40;24.00;;;;;;5115743;28;20376;-43
2022/03/21 12:06:23;;;;;;;13.27;12.27;;;37.70;24.00;;;;;;5116927;28;20951;-42
2022/03/21 12:08:53;;;;;;;12.03;11.13;;;38.00;23.80;;;;;;5116476;28;20464;-41
2022/03/21 12:11:40;;;;;;;14.70;13.20;;;38.20;23.80;;;;;;5119278;28;20549;-39
2022/03/21 12:14:28;;;;;;;15.50;14.27;;;38.40;23.30;;;;;;5119088;28;20412;-41
2022/03/21 12:17:05;;;;;;;14.17;13.10;;;38.60;23.00;;;;;;5115865;28;20414;-42
2022/03/21 12:19:54;;;;;;;12.77;11.73;;;38.70;23.00;;;;;;5116255;28;20514;-42
2022/03/21 12:22:39;;;;;;;15.93;14.47;;;39.10;23.20;;;;;;5114338;27;20431;-41
2022/03/21 12:25:14;;;;;;;14.13;13.03;;;39.40;22.80;;;;;;5116708;28;20418;-41
2022/03/21 12:27:47;;;;;;;13.63;12.53;;;39.70;22.90;;;;;;5114375;28;20609;-41
2022/03/21 12:30:26;;;;;;;15.70;14.37;;;39.90;22.90;;;;;;5113240;28;20505;-41
2022/03/21 12:32:53;;;;;;;14.87;13.70;;;40.10;22.40;;;;;;5115700;28;20426;-41
2022/03/21 12:35:31;;;;;;;15.93;14.63;;;40.10;22.50;;;;;;5114453;28;20883;-41
2022/03/21 12:38:04;;;;;;;15.33;14.23;;;40.60;22.60;;;;;;5116105;28;20476;-42
2022/03/21 12:40:31;;;;;;;14.30;13.20;;;40.90;22.00;;;;;;5117168;28;20423;-41
2022/03/21 12:42:57;;;;;;;14.83;13.73;;;41.00;22.20;;;;;;5115183;28;20485;-41
2022/03/21 12:45:24;;;;;;;14.47;13.20;;;41.30;22.00;;;;;;5117829;28;20410;-43
2022/03/21 12:47:50;;;;;;;14.20;12.97;;;41.40;22.10;;;;;;5114249;28;20463;-40
2022/03/21 12:50:20;;;;;;;13.80;12.80;;;41.60;21.90;;;;;;5112746;28;20483;-41
2022/03/21 12:52:52;;;;;;;13.43;12.43;;;41.80;21.90;;;;;;5117736;28;20442;-41
2022/03/21 12:55:18;;;;;;;13.00;12.00;;;41.80;22.00;;;;;;5116251;28;20409;-41
2022/03/21 12:58:09;;;;;;;13.00;12.10;;;41.90;21.90;;;;;;5114567;28;20587;-41
2022/03/21 13:00:38;;;;;;;14.27;13.27;;;41.60;22.10;;;;;;5109353;28;20236;-42
2022/03/21 13:03:15;;;;;;;12.53;11.70;;;41.80;21.70;;;;;;5114420;28;20424;-43
2022/03/21 13:11:38;;;;;;;14.70;13.33;;;41.90;21.80;;;;;;5116029;28;20469;-41
2022/03/21 13:14:06;;;;;;;14.00;13.10;;;41.80;21.80;;;;;;5115831;28;20406;-43
2022/03/21 13:16:38;;;;;;;13.03;12.13;;;41.60;21.90;;;;;;5115998;28;20419;-48